Time;durP1;ratioP1;P1;durP2;ratioP2;P2;SDS_P1;SDS_P2;PMS_P1;PMS_P2;Temp;Humidity;BMP_temperature;BMP_pressure;BME280_temperature;BME280_humidity;BME280_pressure;Samples;Min_cycle;Max_cycle;Signal;HPM_P1;HPM_P2
2021/07/15 00:00:54;;;;;;;;;14.67;14.33;;;;;;;;5073304;27;51069;-48
2021/07/15 00:03:20;;;;;;;;;16.00;14.33;;;;;;;;5062972;28;51138;-50
2021/07/15 00:05:46;;;;;;;;;13.00;12.00;;;;;;;;5073961;27;51311;-51
2021/07/15 00:08:13;;;;;;;;;12.00;11.33;;;;;;;;5070455;28;52918;-52
2021/07/15 00:10:46;;;;;;;;;13.33;12.67;;;;;;;;5074698;27;50929;-49
2021/07/15 00:13:13;;;;;;;;;14.67;14.67;;;;;;;;5072025;28;50954;-51
2021/07/15 00:15:40;;;;;;;;;12.67;12.67;;;;;;;;5070292;27;51188;-51
2021/07/15 00:18:07;;;;;;;;;14.00;14.00;;;;;;;;5070888;28;52390;-52
2021/07/15 00:20:36;;;;;;;;;14.33;12.33;;;;;;;;5065155;28;50953;-50
2021/07/15 00:23:02;;;;;;;;;14.67;14.33;;;;;;;;5072146;27;51194;-51
2021/07/15 00:25:27;;;;;;;;;14.00;14.00;;;;;;;;5075163;27;50895;-50
2021/07/15 00:27:52;;;;;;;;;13.33;13.33;;;;;;;;5071449;27;53555;-50
2021/07/15 00:30:18;;;;;;;;;13.33;12.67;;;;;;;;5074345;28;51096;-51
2021/07/15 00:32:43;;;;;;;;;11.67;10.67;;;;;;;;5073567;27;50879;-52
2021/07/15 00:35:09;;;;;;;;;15.33;14.33;;;;;;;;5074879;27;50835;-51
2021/07/15 00:37:35;;;;;;;;;15.33;15.33;;;;;;;;5070536;27;51167;-50
2021/07/15 00:40:00;;;;;;;;;15.67;15.67;;;;;;;;5066550;27;50931;-52
2021/07/15 00:42:25;;;;;;;;;15.67;15.00;;;;;;;;5073201;27;51143;-50
2021/07/15 00:44:50;;;;;;;;;11.33;11.33;;;;;;;;5074924;27;50922;-50
2021/07/15 00:47:15;;;;;;;;;13.75;13.75;;;;;;;;5068574;27;52050;-53
2021/07/15 00:49:41;;;;;;;;;17.00;16.00;;;;;;;;5074473;28;50890;-49
2021/07/15 00:52:11;;;;;;;;;15.50;15.00;;;;;;;;5073656;27;51073;-52
2021/07/15 00:54:37;;;;;;;;;14.33;14.00;;;;;;;;5073306;28;51194;-50
2021/07/15 00:57:02;;;;;;;;;14.67;14.67;;;;;;;;5071030;28;51889;-50
2021/07/15 00:59:27;;;;;;;;;15.33;15.33;;;;;;;;5074373;27;50906;-51
2021/07/15 01:01:52;;;;;;;;;17.00;15.00;;;;;;;;5074228;27;51042;-51
2021/07/15 01:04:17;;;;;;;;;17.00;16.00;;;;;;;;5073014;27;51414;-48
2021/07/15 01:06:43;;;;;;;;;14.00;12.67;;;;;;;;5066105;27;51785;-51
2021/07/15 01:09:08;;;;;;;;;15.50;14.50;;;;;;;;5073212;27;51217;-48
2021/07/15 01:11:56;;;;;;;;;14.00;14.00;;;;;;;;5074355;27;51087;-49
2021/07/15 01:14:27;;;;;;;;;16.25;15.25;;;;;;;;5053732;28;51217;-49
2021/07/15 01:16:57;;;;;;;;;15.67;15.33;;;;;;;;5068916;27;51263;-50
2021/07/15 01:19:37;;;;;;;;;15.33;15.33;;;;;;;;5060200;27;50977;-53
2021/07/15 01:22:03;;;;;;;;;16.00;15.75;;;;;;;;5072277;27;50900;-50
2021/07/15 01:24:47;;;;;;;;;16.33;15.00;;;;;;;;5071925;28;50812;-49
2021/07/15 01:27:38;;;;;;;;;14.25;14.25;;;;;;;;5059549;28;51945;-48
2021/07/15 01:30:08;;;;;;;;;18.50;18.25;;;;;;;;5062568;27;51196;-48
2021/07/15 01:32:42;;;;;;;;;16.00;15.00;;;;;;;;5069243;27;50980;-47
2021/07/15 01:35:08;;;;;;;;;19.25;17.50;;;;;;;;5066067;28;50943;-46
2021/07/15 01:37:34;;;;;;;;;15.00;14.75;;;;;;;;5061696;28;51771;-48
2021/07/15 01:40:00;;;;;;;;;16.75;16.25;;;;;;;;5072888;27;50886;-50
2021/07/15 01:42:26;;;;;;;;;16.25;16.25;;;;;;;;5071714;28;51307;-50
2021/07/15 01:44:53;;;;;;;;;16.50;16.00;;;;;;;;5073769;27;50995;-47
2021/07/15 01:47:19;;;;;;;;;17.00;16.33;;;;;;;;5072119;28;52594;-51
2021/07/15 01:49:45;;;;;;;;;19.25;18.25;;;;;;;;5073519;27;51008;-49
2021/07/15 01:52:11;;;;;;;;;16.75;16.75;;;;;;;;5072867;27;51131;-49
2021/07/15 01:54:37;;;;;;;;;18.50;18.50;;;;;;;;5067908;27;52032;-51
2021/07/15 01:57:05;;;;;;;;;16.33;15.33;;;;;;;;5073174;27;51005;-48
2021/07/15 01:59:31;;;;;;;;;16.50;16.25;;;;;;;;5073387;27;51112;-48
2021/07/15 02:01:57;;;;;;;;;19.00;18.00;;;;;;;;5072411;28;51109;-51
2021/07/15 02:04:23;;;;;;;;;17.67;15.33;;;;;;;;5072097;27;50886;-50
2021/07/15 02:06:51;;;;;;;;;17.50;17.50;;;;;;;;5071759;27;51869;-51
2021/07/15 02:09:18;;;;;;;;;19.00;18.00;;;;;;;;5073186;28;51005;-47
2021/07/15 02:11:43;;;;;;;;;21.00;20.50;;;;;;;;5073379;27;50959;-51
2021/07/15 02:14:11;;;;;;;;;11.00;10.50;;;;;;;;5072197;27;51221;-49
2021/07/15 02:16:37;;;;;;;;;19.75;19.00;;;;;;;;5067032;27;52183;-49
2021/07/15 02:19:03;;;;;;;;;19.00;18.00;;;;;;;;5070559;27;50956;-48
2021/07/15 02:21:30;;;;;;;;;19.50;17.25;;;;;;;;5072265;27;51107;-50
2021/07/15 02:23:56;;;;;;;;;19.25;19.00;;;;;;;;5066897;27;51130;-49
2021/07/15 02:26:22;;;;;;;;;17.00;17.00;;;;;;;;5072482;27;52129;-47
2021/07/15 02:28:47;;;;;;;;;18.00;18.00;;;;;;;;5072596;27;50900;-50
2021/07/15 02:31:16;;;;;;;;;19.00;18.50;;;;;;;;5060569;28;51180;-51
2021/07/15 02:33:44;;;;;;;;;19.50;18.25;;;;;;;;5070524;27;51210;-51
2021/07/15 02:36:10;;;;;;;;;19.00;18.75;;;;;;;;5072605;27;51021;-49
2021/07/15 02:38:36;;;;;;;;;17.00;16.00;;;;;;;;5072031;27;51130;-48
2021/07/15 02:41:01;;;;;;;;;18.50;16.75;;;;;;;;5071536;27;51139;-51
2021/07/15 02:43:27;;;;;;;;;17.25;16.50;;;;;;;;5059789;27;50835;-49
2021/07/15 02:45:52;;;;;;;;;17.75;17.75;;;;;;;;5072754;27;52252;-50
2021/07/15 02:48:18;;;;;;;;;16.00;15.50;;;;;;;;5072440;27;51064;-49
2021/07/15 02:50:43;;;;;;;;;18.00;17.50;;;;;;;;5071198;27;51053;-51
2021/07/15 02:53:09;;;;;;;;;19.00;18.25;;;;;;;;5070844;27;50932;-51
2021/07/15 02:55:34;;;;;;;;;18.50;17.25;;;;;;;;5071238;27;50990;-50
2021/07/15 02:58:12;;;;;;;;;17.25;16.00;;;;;;;;5072357;27;51037;-48
2021/07/15 03:00:46;;;;;;;;;18.75;17.50;;;;;;;;5071840;27;51177;-48
2021/07/15 03:03:19;;;;;;;;;19.00;16.75;;;;;;;;5070411;28;51075;-52
2021/07/15 03:05:56;;;;;;;;;19.25;19.00;;;;;;;;5060912;28;50979;-47
2021/07/15 03:08:24;;;;;;;;;17.00;16.75;;;;;;;;5070746;27;51250;-51
2021/07/15 03:10:50;;;;;;;;;19.00;18.25;;;;;;;;5072513;27;50949;-49
2021/07/15 03:13:17;;;;;;;;;22.00;19.75;;;;;;;;5069987;27;51371;-52
2021/07/15 03:15:43;;;;;;;;;18.00;18.00;;;;;;;;5056912;28;51072;-51
2021/07/15 03:18:09;;;;;;;;;19.00;17.25;;;;;;;;5068177;28;50901;-47
2021/07/15 03:20:36;;;;;;;;;14.75;14.50;;;;;;;;5062437;28;51019;-47
2021/07/15 03:23:05;;;;;;;;;17.75;17.25;;;;;;;;5072090;27;51076;-49
2021/07/15 03:25:31;;;;;;;;;19.75;19.00;;;;;;;;5070007;27;51216;-51
2021/07/15 03:27:58;;;;;;;;;17.50;16.25;;;;;;;;5072216;27;51127;-49
2021/07/15 03:30:25;;;;;;;;;19.00;18.00;;;;;;;;5074490;27;51050;-48
2021/07/15 03:32:50;;;;;;;;;18.50;18.00;;;;;;;;5075696;27;51342;-47
2021/07/15 03:35:15;;;;;;;;;19.00;15.50;;;;;;;;5070558;27;51965;-47
2021/07/15 03:37:41;;;;;;;;;20.75;18.50;;;;;;;;5072694;28;51274;-49
2021/07/15 03:40:07;;;;;;;;;17.75;17.75;;;;;;;;5075091;27;51200;-47
2021/07/15 03:42:33;;;;;;;;;17.67;17.67;;;;;;;;5075608;27;51330;-47
2021/07/15 03:44:59;;;;;;;;;17.25;16.75;;;;;;;;5073947;27;52208;-51
2021/07/15 03:47:25;;;;;;;;;21.00;20.00;;;;;;;;5073974;27;50984;-46
2021/07/15 03:49:50;;;;;;;;;16.50;16.50;;;;;;;;5075580;27;51005;-48
2021/07/15 03:52:17;;;;;;;;;19.75;19.00;;;;;;;;5074864;27;51432;-48
2021/07/15 03:54:43;;;;;;;;;21.75;20.75;;;;;;;;5072125;27;51243;-47
2021/07/15 03:57:10;;;;;;;;;19.00;18.00;;;;;;;;5073905;27;51016;-48
2021/07/15 03:59:38;;;;;;;;;19.25;19.00;;;;;;;;5075256;27;50981;-48
2021/07/15 04:02:05;;;;;;;;;18.25;18.00;;;;;;;;5075454;27;50897;-47
2021/07/15 04:04:31;;;;;;;;;21.00;20.00;;;;;;;;5073501;27;52167;-49
2021/07/15 04:06:59;;;;;;;;;20.00;20.00;;;;;;;;5074878;27;51079;-48
2021/07/15 04:09:25;;;;;;;;;16.75;16.50;;;;;;;;5074289;27;50905;-50
2021/07/15 04:11:50;;;;;;;;;19.50;18.50;;;;;;;;5063245;27;51175;-49
2021/07/15 04:14:21;;;;;;;;;20.75;18.75;;;;;;;;5072552;27;51977;-48
2021/07/15 04:16:51;;;;;;;;;20.25;19.50;;;;;;;;5068710;27;51310;-49
2021/07/15 04:19:16;;;;;;;;;17.50;17.25;;;;;;;;5074697;27;50842;-50
2021/07/15 04:21:42;;;;;;;;;20.75;19.75;;;;;;;;5068022;28;51281;-50
2021/07/15 04:24:08;;;;;;;;;20.25;19.25;;;;;;;;5069323;27;51973;-49
2021/07/15 04:26:34;;;;;;;;;18.00;17.75;;;;;;;;5073575;28;51040;-47
2021/07/15 04:29:00;;;;;;;;;21.25;19.75;;;;;;;;5074650;27;51070;-47
2021/07/15 04:31:25;;;;;;;;;20.50;20.00;;;;;;;;5073372;27;51267;-49
2021/07/15 04:33:51;;;;;;;;;17.75;17.00;;;;;;;;5072309;27;52709;-52
2021/07/15 04:36:17;;;;;;;;;17.50;16.50;;;;;;;;5074608;27;50878;-49
2021/07/15 04:38:42;;;;;;;;;19.00;18.50;;;;;;;;5073330;27;51504;-51
2021/07/15 04:41:09;;;;;;;;;18.25;17.75;;;;;;;;5072590;27;51186;-50
2021/07/15 04:43:35;;;;;;;;;20.75;19.75;;;;;;;;5072568;27;51205;-53
2021/07/15 04:46:01;;;;;;;;;19.75;19.25;;;;;;;;5068632;28;51012;-48
2021/07/15 04:48:26;;;;;;;;;20.00;20.00;;;;;;;;5074229;27;50890;-51
2021/07/15 04:50:52;;;;;;;;;23.00;21.00;;;;;;;;5074647;28;51103;-49
2021/07/15 04:53:19;;;;;;;;;18.00;17.00;;;;;;;;5073540;27;51266;-50
2021/07/15 04:55:45;;;;;;;;;18.75;18.50;;;;;;;;5063802;27;50999;-52
2021/07/15 04:58:11;;;;;;;;;19.00;18.75;;;;;;;;5072225;27;50970;-51
2021/07/15 05:00:37;;;;;;;;;19.25;18.25;;;;;;;;5074439;27;50866;-48
2021/07/15 05:03:08;;;;;;;;;19.25;16.75;;;;;;;;5073573;27;51197;-48
2021/07/15 05:05:34;;;;;;;;;19.50;18.50;;;;;;;;5065391;27;50993;-48
2021/07/15 05:07:59;;;;;;;;;19.00;19.00;;;;;;;;5071142;28;51466;-51
2021/07/15 05:10:24;;;;;;;;;18.25;17.75;;;;;;;;5074197;27;51384;-50
2021/07/15 05:12:49;;;;;;;;;19.00;17.00;;;;;;;;5072270;28;51236;-47
2021/07/15 05:15:15;;;;;;;;;19.25;18.25;;;;;;;;5072758;27;51414;-51
2021/07/15 05:17:40;;;;;;;;;17.50;17.25;;;;;;;;5068181;28;51124;-50
2021/07/15 05:20:06;;;;;;;;;19.75;18.75;;;;;;;;5074041;27;51349;-48
2021/07/15 05:22:31;;;;;;;;;21.50;19.75;;;;;;;;5073128;27;52395;-50
2021/07/15 05:24:56;;;;;;;;;22.00;21.25;;;;;;;;5073752;27;51044;-48
2021/07/15 05:27:22;;;;;;;;;19.50;18.50;;;;;;;;5071992;27;51300;-48
2021/07/15 05:29:47;;;;;;;;;17.00;16.00;;;;;;;;5072686;27;51540;-50
2021/07/15 05:32:12;;;;;;;;;16.75;15.25;;;;;;;;5060026;27;52469;-49
2021/07/15 05:34:37;;;;;;;;;17.67;16.67;;;;;;;;5058799;27;50995;-47
2021/07/15 05:37:03;;;;;;;;;16.25;14.50;;;;;;;;5068355;28;51086;-51
2021/07/15 05:39:28;;;;;;;;;19.75;18.50;;;;;;;;5072015;27;51097;-47
2021/07/15 05:41:53;;;;;;;;;23.00;21.25;;;;;;;;5073047;27;52680;-49
2021/07/15 05:44:19;;;;;;;;;18.50;18.50;;;;;;;;5076811;27;50957;-50
2021/07/15 05:46:44;;;;;;;;;21.75;20.00;;;;;;;;5079222;27;50919;-50
2021/07/15 05:49:09;;;;;;;;;15.67;15.67;;;;;;;;5072331;28;50936;-50
2021/07/15 05:51:34;;;;;;;;;19.33;19.33;;;;;;;;5072485;27;51056;-48
2021/07/15 05:53:59;;;;;;;;;18.00;16.00;;;;;;;;5072097;28;50984;-49
2021/07/15 05:56:25;;;;;;;;;17.67;16.67;;;;;;;;5073425;27;51162;-51
2021/07/15 05:58:50;;;;;;;;;17.50;17.50;;;;;;;;5073507;28;51219;-49
2021/07/15 06:01:15;;;;;;;;;18.00;18.00;;;;;;;;5073136;27;51215;-47
2021/07/15 06:03:40;;;;;;;;;17.75;17.75;;;;;;;;5073340;28;50941;-50
2021/07/15 06:06:06;;;;;;;;;17.00;15.33;;;;;;;;5072514;27;50949;-49
2021/07/15 06:08:31;;;;;;;;;17.75;17.75;;;;;;;;5073333;27;50876;-50
2021/07/15 06:10:56;;;;;;;;;16.25;14.75;;;;;;;;5072693;27;50904;-49
2021/07/15 06:13:21;;;;;;;;;17.50;16.25;;;;;;;;5072874;27;51024;-50
2021/07/15 06:15:47;;;;;;;;;17.33;15.67;;;;;;;;5067037;27;51602;-50
2021/07/15 06:18:12;;;;;;;;;16.00;15.00;;;;;;;;5071845;28;51395;-49
2021/07/15 06:20:37;;;;;;;;;13.67;13.67;;;;;;;;5068701;27;51004;-49
2021/07/15 06:23:02;;;;;;;;;17.67;17.33;;;;;;;;5072316;27;51027;-51
2021/07/15 06:25:28;;;;;;;;;16.00;14.33;;;;;;;;5072379;27;51054;-51
2021/07/15 06:27:53;;;;;;;;;15.33;14.67;;;;;;;;5063049;27;51059;-52
2021/07/15 06:30:18;;;;;;;;;11.50;11.00;;;;;;;;5072054;28;52192;-49
2021/07/15 06:32:44;;;;;;;;;16.67;15.33;;;;;;;;5068616;27;52780;-49
2021/07/15 06:35:09;;;;;;;;;14.67;14.33;;;;;;;;5071829;28;51175;-51
2021/07/15 06:37:37;;;;;;;;;14.33;13.33;;;;;;;;5070753;28;51327;-52
2021/07/15 06:40:03;;;;;;;;;17.67;17.33;;;;;;;;5071992;27;52722;-51
2021/07/15 06:42:29;;;;;;;;;15.00;15.00;;;;;;;;5070704;28;51065;-49
2021/07/15 06:44:54;;;;;;;;;14.67;13.67;;;;;;;;5072003;27;51215;-52
2021/07/15 06:47:19;;;;;;;;;16.67;15.67;;;;;;;;5072667;28;51262;-52
2021/07/15 06:49:44;;;;;;;;;15.00;13.33;;;;;;;;5072063;27;52196;-50
2021/07/15 06:52:10;;;;;;;;;34.25;32.00;;;;;;;;5071377;27;51128;-52
2021/07/15 06:54:35;;;;;;;;;16.67;16.33;;;;;;;;5071992;27;51095;-51
2021/07/15 06:57:00;;;;;;;;;15.67;15.67;;;;;;;;5072042;27;50989;-51
2021/07/15 06:59:25;;;;;;;;;16.67;16.00;;;;;;;;5072145;27;50958;-52
2021/07/15 07:01:51;;;;;;;;;15.33;15.00;;;;;;;;5071919;28;50938;-51
2021/07/15 07:04:16;;;;;;;;;16.00;13.33;;;;;;;;5071938;27;50989;-51
2021/07/15 07:06:41;;;;;;;;;16.67;15.33;;;;;;;;5071751;27;51230;-49
2021/07/15 07:09:07;;;;;;;;;17.33;15.67;;;;;;;;5071833;27;51042;-49
2021/07/15 07:11:32;;;;;;;;;14.00;14.00;;;;;;;;5071897;27;51112;-51
2021/07/15 07:13:57;;;;;;;;;12.67;12.67;;;;;;;;5072098;27;50989;-51
2021/07/15 07:16:22;;;;;;;;;14.00;13.00;;;;;;;;5065819;27;51351;-48
2021/07/15 07:18:48;;;;;;;;;13.00;12.00;;;;;;;;5069619;27;51980;-49
2021/07/15 07:21:13;;;;;;;;;15.67;14.33;;;;;;;;5071226;28;51088;-50
2021/07/15 07:23:38;;;;;;;;;12.33;12.33;;;;;;;;5071850;27;50895;-51
2021/07/15 07:26:03;;;;;;;;;11.67;11.00;;;;;;;;5070544;28;51004;-52
2021/07/15 07:28:29;;;;;;;;;13.67;13.67;;;;;;;;5071768;28;51343;-50
2021/07/15 07:30:54;;;;;;;;;12.67;12.33;;;;;;;;5071780;27;51026;-47
2021/07/15 07:33:19;;;;;;;;;14.67;14.67;;;;;;;;5071517;27;51061;-48
2021/07/15 07:35:45;;;;;;;;;14.00;13.67;;;;;;;;5067590;28;51346;-51
2021/07/15 07:38:10;;;;;;;;;13.00;12.00;;;;;;;;5063646;28;50970;-51
2021/07/15 07:40:35;;;;;;;;;11.67;11.67;;;;;;;;5071877;27;50995;-47
2021/07/15 07:43:01;;;;;;;;;13.33;13.33;;;;;;;;5072042;27;51021;-49
2021/07/15 07:45:26;;;;;;;;;13.00;11.67;;;;;;;;5070632;28;51139;-50
2021/07/15 07:47:51;;;;;;;;;14.00;13.33;;;;;;;;5071452;27;51945;-48
2021/07/15 07:50:16;;;;;;;;;12.00;11.33;;;;;;;;5071333;27;51060;-48
2021/07/15 07:52:42;;;;;;;;;12.67;11.67;;;;;;;;5071213;27;51140;-51
2021/07/15 07:55:08;;;;;;;;;10.67;10.00;;;;;;;;5071636;28;51185;-51
2021/07/15 07:57:33;;;;;;;;;10.67;9.67;;;;;;;;5071345;28;52322;-50
2021/07/15 08:00:10;;;;;;;;;9.00;9.00;;;;;;;;5071431;27;50897;-48
2021/07/15 08:02:36;;;;;;;;;12.33;10.00;;;;;;;;5071598;27;50831;-50
2021/07/15 08:05:05;;;;;;;;;11.67;11.33;;;;;;;;5071664;27;50886;-48
2021/07/15 08:07:30;;;;;;;;;10.67;10.00;;;;;;;;5071093;27;52626;-51
2021/07/15 08:09:55;;;;;;;;;8.67;8.67;;;;;;;;5069786;28;51183;-50
2021/07/15 08:12:20;;;;;;;;;9.00;9.00;;;;;;;;5071696;27;51199;-49
2021/07/15 08:14:46;;;;;;;;;8.67;8.33;;;;;;;;5071333;27;50979;-52
2021/07/15 08:17:11;;;;;;;;;9.67;9.00;;;;;;;;5055255;27;51958;-52
2021/07/15 08:19:37;;;;;;;;;12.00;11.33;;;;;;;;5072377;28;51148;-51
2021/07/15 08:22:02;;;;;;;;;10.67;10.33;;;;;;;;5074729;27;50962;-52
2021/07/15 08:24:28;;;;;;;;;18.67;18.33;;;;;;;;5074720;28;51108;-51
2021/07/15 08:26:53;;;;;;;;;16.00;16.00;;;;;;;;5074363;27;51379;-50
2021/07/15 08:29:18;;;;;;;;;8.67;8.00;;;;;;;;5074104;28;51028;-50
2021/07/15 08:31:45;;;;;;;;;10.00;9.00;;;;;;;;5074452;27;51220;-52
2021/07/15 08:34:11;;;;;;;;;9.33;9.33;;;;;;;;5074748;27;50851;-51
2021/07/15 08:36:36;;;;;;;;;9.67;9.67;;;;;;;;5073884;27;50960;-49
2021/07/15 08:39:02;;;;;;;;;8.67;8.67;;;;;;;;5074089;27;51128;-50
2021/07/15 08:41:27;;;;;;;;;10.67;10.33;;;;;;;;5074581;27;51105;-52
2021/07/15 08:43:53;;;;;;;;;9.00;8.50;;;;;;;;5074076;28;51091;-50
2021/07/15 08:46:19;;;;;;;;;11.67;11.67;;;;;;;;5073743;27;51137;-48
2021/07/15 08:48:45;;;;;;;;;8.33;8.33;;;;;;;;5072674;28;51043;-52
2021/07/15 08:51:11;;;;;;;;;7.00;7.00;;;;;;;;5073382;27;52134;-48
2021/07/15 08:53:36;;;;;;;;;11.00;10.67;;;;;;;;5074094;27;51026;-51
2021/07/15 08:58:45;;;;;;;;;8.00;8.00;;;;;;;;5073903;28;51049;-50
2021/07/15 09:01:11;;;;;;;;;9.00;9.00;;;;;;;;5073801;28;51251;-50
2021/07/15 09:03:36;;;;;;;;;10.00;9.33;;;;;;;;5074323;28;51074;-51
2021/07/15 09:06:01;;;;;;;;;8.67;8.67;;;;;;;;5073311;28;51211;-50
2021/07/15 09:08:29;;;;;;;;;10.33;9.67;;;;;;;;5073794;27;51117;-52
2021/07/15 09:10:55;;;;;;;;;8.00;8.00;;;;;;;;5073966;27;51034;-51
2021/07/15 09:13:20;;;;;;;;;9.67;9.67;;;;;;;;5074021;27;50955;-51
2021/07/15 09:15:46;;;;;;;;;7.67;7.33;;;;;;;;5062333;27;50990;-52
2021/07/15 09:18:13;;;;;;;;;8.33;7.33;;;;;;;;5071594;28;51245;-51
2021/07/15 09:20:38;;;;;;;;;7.67;7.00;;;;;;;;5071767;28;51141;-48
2021/07/15 09:23:07;;;;;;;;;10.00;10.00;;;;;;;;5073009;28;51251;-51
2021/07/15 09:25:38;;;;;;;;;8.00;7.67;;;;;;;;5073322;27;52920;-57
2021/07/15 09:28:04;;;;;;;;;9.00;9.00;;;;;;;;5071562;28;51264;-50
2021/07/15 09:30:30;;;;;;;;;10.00;10.00;;;;;;;;5072757;27;51100;-51
2021/07/15 09:33:03;;;;;;;;;9.33;9.33;;;;;;;;5072916;27;51266;-49
2021/07/15 09:35:35;;;;;;;;;8.33;8.33;;;;;;;;5072454;27;52307;-50
2021/07/15 09:38:11;;;;;;;;;9.67;9.67;;;;;;;;5068203;27;51228;-51
2021/07/15 09:40:37;;;;;;;;;11.33;11.33;;;;;;;;5072322;27;50938;-48
2021/07/15 09:43:14;;;;;;;;;10.67;10.33;;;;;;;;5072917;28;50987;-52
2021/07/15 09:45:40;;;;;;;;;10.00;10.00;;;;;;;;5072453;27;51838;-52
2021/07/15 09:48:12;;;;;;;;;9.33;9.33;;;;;;;;5072535;27;51019;-51
2021/07/15 09:50:38;;;;;;;;;8.33;8.33;;;;;;;;5071290;28;51192;-49
2021/07/15 09:53:23;;;;;;;;;10.67;10.67;;;;;;;;5070528;28;51104;-51
2021/07/15 09:55:59;;;;;;;;;9.33;9.33;;;;;;;;5070236;27;51200;-53
2021/07/15 09:58:24;;;;;;;;;9.67;9.00;;;;;;;;5072031;27;50992;-51
2021/07/15 10:00:50;;;;;;;;;12.00;12.00;;;;;;;;5072025;27;50974;-49
2021/07/15 10:03:16;;;;;;;;;9.33;9.33;;;;;;;;5072240;27;51145;-50
2021/07/15 10:05:52;;;;;;;;;11.00;10.67;;;;;;;;5072332;27;51813;-52
2021/07/15 10:08:27;;;;;;;;;10.67;10.00;;;;;;;;5072049;27;51062;-51
2021/07/15 10:10:53;;;;;;;;;11.00;10.00;;;;;;;;5072001;28;51173;-50
2021/07/15 10:13:24;;;;;;;;;10.00;9.67;;;;;;;;5070635;28;50985;-49
2021/07/15 10:15:50;;;;;;;;;6.00;6.00;;;;;;;;5066065;27;52108;-49
2021/07/15 10:18:33;;;;;;;;;12.00;11.00;;;;;;;;5070399;28;51036;-52
2021/07/15 10:20:58;;;;;;;;;9.00;9.00;;;;;;;;5071617;27;51056;-52
2021/07/15 10:23:31;;;;;;;;;8.33;8.33;;;;;;;;5072142;27;51078;-49
2021/07/15 10:25:56;;;;;;;;;8.00;8.00;;;;;;;;5070115;28;52057;-50
2021/07/15 10:28:22;;;;;;;;;10.67;10.00;;;;;;;;5071544;28;50903;-51
2021/07/15 10:30:47;;;;;;;;;12.67;12.00;;;;;;;;5071471;27;51057;-49
2021/07/15 10:33:13;;;;;;;;;7.33;7.33;;;;;;;;5071114;27;51227;-53
2021/07/15 10:35:38;;;;;;;;;12.33;12.33;;;;;;;;5071225;28;51167;-52
2021/07/15 10:38:03;;;;;;;;;11.00;11.00;;;;;;;;5070899;28;51107;-50
2021/07/15 10:40:29;;;;;;;;;11.33;11.00;;;;;;;;5070787;27;51030;-52
2021/07/15 10:42:54;;;;;;;;;11.67;11.67;;;;;;;;5070233;28;51427;-49
2021/07/15 10:45:19;;;;;;;;;9.33;9.00;;;;;;;;5070871;27;52132;-51
2021/07/15 10:47:45;;;;;;;;;10.00;10.00;;;;;;;;5071234;27;51055;-52
2021/07/15 10:50:10;;;;;;;;;12.00;11.33;;;;;;;;5071429;27;51086;-52
2021/07/15 10:52:36;;;;;;;;;9.67;9.00;;;;;;;;5070715;27;51074;-50
2021/07/15 10:55:05;;;;;;;;;8.33;8.33;;;;;;;;5070927;27;51411;-53
2021/07/15 10:57:31;;;;;;;;;9.33;9.33;;;;;;;;5071313;27;51176;-51
2021/07/15 11:00:14;;;;;;;;;8.50;8.50;;;;;;;;5071251;27;51060;-51
2021/07/15 11:02:40;;;;;;;;;8.67;8.67;;;;;;;;5071280;28;51946;-50
2021/07/15 11:05:23;;;;;;;;;10.00;9.67;;;;;;;;5070821;28;52138;-51
2021/07/15 11:07:48;;;;;;;;;8.67;8.67;;;;;;;;5070474;28;50953;-48
2021/07/15 11:10:19;;;;;;;;;9.00;9.00;;;;;;;;5070644;28;51078;-52
2021/07/15 11:12:54;;;;;;;;;9.67;8.67;;;;;;;;5062236;28;51282;-50
2021/07/15 11:15:20;;;;;;;;;9.00;7.33;;;;;;;;5069047;28;51863;-51
2021/07/15 11:17:53;;;;;;;;;7.67;7.67;;;;;;;;5070762;27;51111;-51
2021/07/15 11:20:28;;;;;;;;;6.67;6.67;;;;;;;;5069343;27;51093;-52
2021/07/15 11:22:57;;;;;;;;;8.00;8.00;;;;;;;;5069066;28;51409;-49
2021/07/15 11:25:28;;;;;;;;;8.00;8.00;;;;;;;;5070399;27;52724;-53
2021/07/15 11:27:59;;;;;;;;;6.67;6.67;;;;;;;;5070399;27;51063;-51
2021/07/15 11:30:25;;;;;;;;;8.67;8.67;;;;;;;;5070904;27;50874;-52
2021/07/15 11:32:51;;;;;;;;;11.00;11.00;;;;;;;;5070814;27;50930;-50
2021/07/15 11:35:23;;;;;;;;;10.67;10.33;;;;;;;;5069904;27;51717;-53
2021/07/15 11:38:02;;;;;;;;;11.33;11.33;;;;;;;;5064325;27;51013;-51
2021/07/15 11:40:37;;;;;;;;;8.67;8.67;;;;;;;;5069977;27;51219;-50
2021/07/15 11:43:22;;;;;;;;;8.00;8.00;;;;;;;;5070367;27;51121;-51
2021/07/15 11:46:07;;;;;;;;;10.00;9.67;;;;;;;;5069647;27;51757;-49
2021/07/15 11:48:53;;;;;;;;;7.33;7.00;;;;;;;;5070396;27;51135;-52
2021/07/15 12:05:51;;;;;;;;;9.67;9.67;;;;;;;;5071198;28;81048;-49
2021/07/15 12:08:19;;;;;;;;;8.00;8.00;;;;;;;;5072437;28;51038;-49
2021/07/15 12:10:49;;;;;;;;;6.33;6.33;;;;;;;;5073472;27;51046;-51
2021/07/15 12:13:15;;;;;;;;;10.00;9.00;;;;;;;;5073766;27;51031;-50
2021/07/15 12:15:43;;;;;;;;;9.00;8.67;;;;;;;;5068512;27;52041;-48
2021/07/15 12:18:09;;;;;;;;;9.67;9.00;;;;;;;;5071486;28;50879;-53
2021/07/15 12:20:46;;;;;;;;;10.67;10.00;;;;;;;;5073728;28;51222;-52
2021/07/15 12:23:13;;;;;;;;;9.33;9.33;;;;;;;;5073287;27;51051;-52
2021/07/15 12:25:38;;;;;;;;;9.67;9.00;;;;;;;;5073402;27;52908;-52
2021/07/15 12:28:05;;;;;;;;;9.00;9.00;;;;;;;;5073587;27;51012;-49
2021/07/15 12:30:37;;;;;;;;;8.00;8.00;;;;;;;;5073948;27;51083;-48
2021/07/15 12:33:02;;;;;;;;;7.00;7.00;;;;;;;;5073920;27;51314;-49
2021/07/15 12:35:31;;;;;;;;;9.33;8.67;;;;;;;;5073370;28;50894;-48
2021/07/15 12:37:57;;;;;;;;;10.00;9.33;;;;;;;;5073475;27;50988;-50
2021/07/15 12:40:27;;;;;;;;;10.33;9.00;;;;;;;;5073365;27;51011;-52
2021/07/15 12:42:52;;;;;;;;;11.33;11.33;;;;;;;;5073848;27;51175;-47
2021/07/15 12:45:18;;;;;;;;;9.67;8.67;;;;;;;;5073308;27;51020;-51
2021/07/15 12:48:00;;;;;;;;;9.67;9.33;;;;;;;;5073456;27;51030;-52
2021/07/15 12:50:26;;;;;;;;;7.00;6.33;;;;;;;;5073556;27;50965;-53
2021/07/15 12:53:07;;;;;;;;;7.33;7.33;;;;;;;;5073111;27;51346;-50
2021/07/15 12:55:33;;;;;;;;;11.00;11.00;;;;;;;;5073539;27;51082;-51
2021/07/15 12:57:59;;;;;;;;;10.33;10.00;;;;;;;;5073135;27;51024;-51
2021/07/15 13:00:24;;;;;;;;;10.67;10.33;;;;;;;;5073566;27;51314;-53
2021/07/15 13:02:49;;;;;;;;;7.00;7.00;;;;;;;;5054768;28;50787;-52
2021/07/15 13:05:15;;;;;;;;;8.33;8.33;;;;;;;;5072807;28;52064;-52
2021/07/15 13:07:42;;;;;;;;;8.33;7.67;;;;;;;;5072809;27;51079;-52
2021/07/15 13:10:21;;;;;;;;;7.67;7.33;;;;;;;;5069017;27;51134;-48
2021/07/15 13:15:31;;;;;;;;;8.00;8.00;;;;;;;;5067713;28;51699;-51
2021/07/15 13:17:56;;;;;;;;;6.00;6.00;;;;;;;;5071552;28;51064;-49
2021/07/15 13:20:22;;;;;;;;;11.67;10.00;;;;;;;;5073646;27;51060;-49
2021/07/15 13:22:54;;;;;;;;;9.00;9.00;;;;;;;;5073105;27;51296;-47
2021/07/15 13:25:23;;;;;;;;;7.33;7.33;;;;;;;;5072865;27;51764;-47
2021/07/15 13:27:50;;;;;;;;;7.67;7.67;;;;;;;;5072685;27;50975;-50
2021/07/15 13:30:16;;;;;;;;;7.00;7.00;;;;;;;;5072613;27;50977;-50
2021/07/15 13:32:42;;;;;;;;;9.00;8.00;;;;;;;;5072318;27;51507;-50
2021/07/15 13:35:11;;;;;;;;;8.67;8.33;;;;;;;;5070502;28;51180;-51
2021/07/15 13:37:37;;;;;;;;;9.33;8.33;;;;;;;;5071773;27;50927;-49
2021/07/15 13:40:14;;;;;;;;;8.00;7.00;;;;;;;;5069297;27;51242;-49
2021/07/15 13:42:39;;;;;;;;;8.00;8.00;;;;;;;;5072496;27;51166;-49
2021/07/15 13:45:06;;;;;;;;;8.67;8.00;;;;;;;;5072087;27;51875;-51
2021/07/15 13:47:35;;;;;;;;;9.33;9.33;;;;;;;;5071891;27;50985;-49
2021/07/15 13:50:04;;;;;;;;;7.67;7.67;;;;;;;;5070408;28;51148;-51
2021/07/15 13:52:31;;;;;;;;;8.33;8.33;;;;;;;;5071638;27;51306;-52
2021/07/15 13:55:08;;;;;;;;;7.67;7.67;;;;;;;;5071140;27;51163;-49
2021/07/15 13:57:36;;;;;;;;;8.33;8.33;;;;;;;;5071679;27;51160;-48
2021/07/15 14:00:04;;;;;;;;;9.00;9.00;;;;;;;;5070945;27;51158;-49
2021/07/15 14:02:30;;;;;;;;;7.00;6.00;;;;;;;;5072312;27;50930;-50
2021/07/15 14:04:55;;;;;;;;;8.67;8.67;;;;;;;;5070826;27;51230;-52
2021/07/15 14:07:21;;;;;;;;;9.00;8.00;;;;;;;;5071403;27;50902;-51
2021/07/15 14:09:47;;;;;;;;;8.67;8.67;;;;;;;;5069786;28;51105;-51
2021/07/15 14:12:13;;;;;;;;;9.67;9.67;;;;;;;;5071586;27;51385;-52
2021/07/15 14:14:52;;;;;;;;;9.00;9.00;;;;;;;;5070090;27;52911;-49
2021/07/15 14:17:22;;;;;;;;;7.33;7.00;;;;;;;;5064894;27;51222;-49
2021/07/15 14:19:47;;;;;;;;;9.00;9.00;;;;;;;;5071718;27;51293;-51
2021/07/15 14:22:13;;;;;;;;;8.67;8.00;;;;;;;;5071633;27;51275;-53
2021/07/15 14:24:38;;;;;;;;;10.33;9.33;;;;;;;;5071576;27;51167;-50
2021/07/15 14:27:03;;;;;;;;;10.00;10.00;;;;;;;;5069926;28;51132;-50
2021/07/15 14:29:29;;;;;;;;;7.33;7.00;;;;;;;;5069828;28;50986;-49
2021/07/15 14:31:54;;;;;;;;;7.00;7.00;;;;;;;;5071727;27;51004;-51
2021/07/15 14:34:19;;;;;;;;;7.67;7.67;;;;;;;;5070620;28;51868;-51
2021/07/15 14:36:45;;;;;;;;;7.00;7.00;;;;;;;;5071192;28;51096;-51
2021/07/15 14:39:10;;;;;;;;;7.67;7.33;;;;;;;;5070965;27;51400;-49
2021/07/15 14:41:36;;;;;;;;;6.33;6.33;;;;;;;;5071162;27;50935;-50
2021/07/15 14:44:01;;;;;;;;;9.00;9.00;;;;;;;;5070745;27;51991;-52
2021/07/15 14:46:27;;;;;;;;;7.33;7.33;;;;;;;;5071105;27;51096;-50